Time;durP1;ratioP1;P1;durP2;ratioP2;P2;SDS_P1;SDS_P2;PMS_P1;PMS_P2;Temp;Humidity;BMP_temperature;BMP_pressure;BME280_temperature;BME280_humidity;BME280_pressure;Samples;Min_cycle;Max_cycle;Signal;HPM_P1;HPM_P2
2022/06/27 00:01:26;;;;;;;13.18;2.28;;;;;;;16.29;100.00;100270.16;6124985;23;20002;-83
2022/06/27 00:03:51;;;;;;;14.38;2.63;;;;;;;16.24;100.00;100270.59;6125342;23;20137;-83
2022/06/27 00:06:19;;;;;;;11.02;1.80;;;;;;;16.18;100.00;100272.00;6123410;23;20010;-82
2022/06/27 00:08:46;;;;;;;16.95;2.45;;;;;;;16.17;100.00;100282.72;6124917;23;20006;-82
2022/06/27 00:11:12;;;;;;;11.82;1.85;;;;;;;16.17;100.00;100262.41;6124487;23;20005;-83
2022/06/27 00:13:37;;;;;;;15.73;2.42;;;;;;;16.36;100.00;100260.66;6124780;23;20013;-83
2022/06/27 00:16:03;;;;;;;11.38;2.05;;;;;;;16.58;100.00;100265.56;6124722;23;20009;-83
2022/06/27 00:18:28;;;;;;;20.83;3.38;;;;;;;16.62;100.00;100266.13;6124921;23;19998;-83
2022/06/27 00:20:54;;;;;;;16.08;2.20;;;;;;;16.68;100.00;100260.22;6125859;23;20032;-83
2022/06/27 00:23:19;;;;;;;23.35;3.35;;;;;;;16.75;100.00;100257.84;6122909;23;20128;-83
2022/06/27 00:25:44;;;;;;;16.75;2.95;;;;;;;16.82;100.00;100261.56;6123113;23;20006;-83
2022/06/27 00:28:10;;;;;;;17.48;2.38;;;;;;;16.87;100.00;100259.31;6123184;23;20013;-83
2022/06/27 00:30:35;;;;;;;28.30;2.40;;;;;;;16.74;100.00;100264.09;6124748;23;20002;-83
2022/06/27 00:33:00;;;;;;;14.63;2.60;;;;;;;16.74;100.00;100258.81;6124824;23;20413;-83
2022/06/27 00:35:26;;;;;;;12.85;2.22;;;;;;;16.87;100.00;100248.72;6125006;23;20380;-83
2022/06/27 00:37:51;;;;;;;16.98;2.45;;;;;;;16.84;100.00;100255.16;6124483;23;20010;-83
2022/06/27 00:40:16;;;;;;;14.85;2.45;;;;;;;16.84;100.00;100259.63;6124877;23;20406;-83
2022/06/27 00:42:42;;;;;;;9.98;1.95;;;;;;;16.73;100.00;100255.31;6124672;23;20041;-83
2022/06/27 00:45:08;;;;;;;12.77;3.05;;;;;;;16.65;100.00;100261.38;6124832;23;20009;-83
2022/06/27 00:47:34;;;;;;;17.27;2.95;;;;;;;16.50;100.00;100252.22;6124794;23;20341;-83
2022/06/27 00:49:59;;;;;;;11.40;1.90;;;;;;;16.53;100.00;100256.38;6124834;23;20087;-82
2022/06/27 00:52:26;;;;;;;12.93;2.80;;;;;;;16.46;100.00;100261.44;6126526;23;20016;-82
2022/06/27 00:54:51;;;;;;;16.85;2.70;;;;;;;16.43;100.00;100257.28;6126831;23;20338;-84
2022/06/27 00:57:17;;;;;;;12.73;1.67;;;;;;;16.33;100.00;100258.28;6126544;23;20052;-83
2022/06/27 00:59:43;;;;;;;11.18;2.53;;;;;;;16.34;100.00;100257.31;6126815;23;20429;-84
2022/06/27 01:02:08;;;;;;;10.85;2.53;;;;;;;16.38;100.00;100259.53;6126646;23;20005;-82
2022/06/27 01:04:36;;;;;;;15.52;2.47;;;;;;;16.29;100.00;100259.56;6126772;23;20064;-83
2022/06/27 01:07:01;;;;;;;15.88;2.78;;;;;;;16.24;100.00;100258.19;6125762;23;20006;-84
2022/06/27 01:09:27;;;;;;;11.98;2.03;;;;;;;16.06;100.00;100265.22;6123267;23;20002;-84
2022/06/27 01:11:52;;;;;;;11.57;2.78;;;;;;;16.16;100.00;100257.25;6126348;23;20434;-84
2022/06/27 01:14:18;;;;;;;11.48;1.83;;;;;;;16.27;100.00;100265.00;6149525;23;20014;-84
2022/06/27 01:16:44;;;;;;;11.85;2.13;;;;;;;16.24;100.00;100258.19;6126778;23;20006;-83
2022/06/27 01:19:11;;;;;;;14.38;2.00;;;;;;;16.09;100.00;100253.50;6126620;23;20451;-84
2022/06/27 01:21:46;;;;;;;17.45;3.10;;;;;;;16.22;100.00;100264.59;6126282;23;20061;-84
2022/06/27 01:24:11;;;;;;;7.53;1.85;;;;;;;16.13;100.00;100263.66;6126281;23;20053;-84
2022/06/27 01:26:36;;;;;;;17.75;2.25;;;;;;;15.99;100.00;100253.50;6126504;23;20006;-84
2022/06/27 01:29:03;;;;;;;19.83;3.50;;;;;;;15.97;100.00;100250.16;6126439;23;20001;-84
2022/06/27 01:31:30;;;;;;;7.97;1.73;;;;;;;15.98;100.00;100257.16;6126445;23;20081;-84
2022/06/27 01:33:56;;;;;;;14.07;2.95;;;;;;;15.80;100.00;100262.34;6126226;23;20001;-83
2022/06/27 01:39:05;;;;;;;13.63;2.03;;;;;;;15.67;100.00;100254.66;6126260;23;20037;-84
2022/06/27 01:41:31;;;;;;;13.40;2.65;;;;;;;15.70;100.00;100261.47;6126501;23;20033;-83
2022/06/27 01:43:56;;;;;;;11.20;2.20;;;;;;;15.59;100.00;100259.81;6126158;23;20015;-83
2022/06/27 01:46:21;;;;;;;11.95;1.98;;;;;;;15.60;100.00;100254.38;6126246;23;20438;-83
2022/06/27 01:48:47;;;;;;;15.45;3.00;;;;;;;15.65;100.00;100267.19;6126284;23;20129;-83
2022/06/27 01:51:13;;;;;;;15.13;2.80;;;;;;;15.76;100.00;100253.84;6126039;23;20013;-83
2022/06/27 01:53:39;;;;;;;8.70;2.33;;;;;;;15.86;100.00;100249.38;6126058;23;19998;-83
2022/06/27 01:56:05;;;;;;;9.50;2.10;;;;;;;15.94;100.00;100251.31;6126151;23;20013;-84
2022/06/27 01:58:31;;;;;;;12.27;2.17;;;;;;;16.03;100.00;100249.59;6126218;23;20029;-83
2022/06/27 02:00:57;;;;;;;11.77;2.28;;;;;;;16.08;100.00;100260.59;6126089;23;20304;-84
2022/06/27 02:03:23;;;;;;;13.13;2.35;;;;;;;16.12;100.00;100254.03;6125652;23;20009;-83
2022/06/27 02:05:51;;;;;;;9.25;1.92;;;;;;;16.20;100.00;100251.50;6125996;23;20005;-83
2022/06/27 02:08:20;;;;;;;20.73;1.98;;;;;;;16.13;100.00;100239.81;6124243;23;20088;-83
2022/06/27 02:10:46;;;;;;;6.80;1.35;;;;;;;16.15;100.00;100248.47;6125982;23;20002;-83
2022/06/27 02:13:12;;;;;;;8.18;1.48;;;;;;;16.20;100.00;100240.06;6124339;23;20012;-84
2022/06/27 02:16:01;;;;;;;10.55;1.70;;;;;;;16.41;100.00;100250.44;6126186;23;20005;-83
2022/06/27 02:18:27;;;;;;;12.68;2.20;;;;;;;16.36;100.00;100250.06;6126026;23;20033;-84
2022/06/27 02:20:53;;;;;;;15.57;1.92;;;;;;;16.41;100.00;100253.09;6126037;23;20437;-83
2022/06/27 02:23:18;;;;;;;13.57;2.42;;;;;;;16.43;100.00;100254.63;6125650;23;20009;-83
2022/06/27 02:25:45;;;;;;;11.65;1.77;;;;;;;16.31;100.00;100254.94;6124034;23;20439;-83
2022/06/27 02:28:12;;;;;;;12.07;2.15;;;;;;;16.51;100.00;100255.69;6125675;23;20425;-83
2022/06/27 02:30:38;;;;;;;15.30;1.92;;;;;;;16.49;100.00;100250.56;6125906;23;20005;-84
2022/06/27 02:33:04;;;;;;;11.70;2.47;;;;;;;16.48;100.00;100253.34;6125779;23;20444;-84
2022/06/27 02:35:30;;;;;;;13.40;1.58;;;;;;;16.49;100.00;100249.72;6125803;23;20005;-83
2022/06/27 02:37:56;;;;;;;14.40;1.92;;;;;;;16.57;100.00;100255.97;6126101;23;20016;-84
2022/06/27 02:40:22;;;;;;;10.60;1.92;;;;;;;16.63;100.00;100247.41;6125845;23;20053;-84
2022/06/27 02:42:49;;;;;;;12.93;2.20;;;;;;;16.82;100.00;100245.66;6125260;23;20006;-84
2022/06/27 02:45:15;;;;;;;12.98;2.25;;;;;;;16.79;100.00;100241.47;6125606;23;20128;-84
2022/06/27 02:47:43;;;;;;;10.65;1.63;;;;;;;16.76;100.00;100243.59;6124173;23;20002;-83
2022/06/27 02:50:10;;;;;;;10.95;1.90;;;;;;;16.85;100.00;100245.38;6125596;23;20009;-83
2022/06/27 02:52:40;;;;;;;11.35;2.55;;;;;;;16.99;100.00;100241.38;6125738;23;20002;-83
2022/06/27 02:55:11;;;;;;;8.77;1.85;;;;;;;17.00;100.00;100238.59;6148778;23;20374;-83
2022/06/27 02:58:15;;;;;;;7.97;1.60;;;;;;;16.84;100.00;100247.22;6125401;23;20037;-83
2022/06/27 03:00:42;;;;;;;9.60;2.47;;;;;;;16.78;100.00;100246.91;6124968;23;20010;-83
2022/06/27 03:03:11;;;;;;;10.70;1.83;;;;;;;16.95;100.00;100246.16;6125441;23;20008;-84
2022/06/27 03:05:54;;;;;;;10.20;1.70;;;;;;;16.89;100.00;100245.94;6125734;23;20076;-83
2022/06/27 03:08:19;;;;;;;7.68;1.73;;;;;;;16.95;100.00;100246.16;6125385;23;20337;-83
2022/06/27 03:10:44;;;;;;;7.60;1.67;;;;;;;16.86;100.00;100241.72;6123882;23;19998;-84
2022/06/27 03:13:10;;;;;;;17.20;2.50;;;;;;;16.88;100.00;100247.72;6125473;23;20009;-83
2022/06/27 03:15:35;;;;;;;7.90;1.77;;;;;;;16.90;100.00;100240.44;6125680;23;20448;-83
2022/06/27 03:18:00;;;;;;;9.40;1.42;;;;;;;16.77;100.00;100243.44;6125266;23;20453;-84
2022/06/27 03:20:25;;;;;;;14.35;2.08;;;;;;;16.84;100.00;100246.34;6125409;23;20377;-84
2022/06/27 03:22:51;;;;;;;13.55;1.88;;;;;;;16.72;100.00;100239.56;6123759;23;20377;-84
2022/06/27 03:25:16;;;;;;;4.75;1.15;;;;;;;16.82;100.00;100243.00;6125235;23;20013;-83
2022/06/27 03:27:42;;;;;;;6.22;1.00;;;;;;;16.81;100.00;100243.97;6125091;23;20088;-83
2022/06/27 03:30:07;;;;;;;6.15;1.05;;;;;;;16.83;100.00;100247.34;6125668;23;20005;-84
2022/06/27 03:32:33;;;;;;;8.65;1.67;;;;;;;16.75;100.00;100240.09;6125229;23;20013;-83
2022/06/27 03:34:58;;;;;;;9.82;1.13;;;;;;;16.56;100.00;100240.19;6125340;23;20033;-84
2022/06/27 03:37:23;;;;;;;4.63;1.02;;;;;;;16.81;100.00;100243.97;6125193;23;20006;-84
2022/06/27 03:39:49;;;;;;;5.38;0.90;;;;;;;16.99;100.00;100246.69;6125190;23;20050;-84
2022/06/27 03:42:14;;;;;;;4.10;1.00;;;;;;;16.80;100.00;100237.00;6125208;23;20006;-84
2022/06/27 03:44:39;;;;;;;6.05;1.10;;;;;;;16.92;100.00;100241.13;6125235;23;20337;-84
2022/06/27 03:47:05;;;;;;;7.10;0.88;;;;;;;16.62;100.00;100248.38;6125250;23;20053;-84
2022/06/27 03:52:14;;;;;;;9.13;0.98;;;;;;;16.76;100.00;100240.94;6124964;23;20017;-84
2022/06/27 03:54:39;;;;;;;6.07;0.93;;;;;;;16.82;100.00;100243.00;6123680;23;20006;-84
2022/06/27 03:57:05;;;;;;;7.75;0.90;;;;;;;16.92;100.00;100249.09;6124905;23;20001;-84
2022/06/27 03:59:30;;;;;;;5.75;0.93;;;;;;;16.62;100.00;100245.75;6124975;23;20433;-83
2022/06/27 04:01:55;;;;;;;6.68;0.80;;;;;;;16.54;100.00;100253.59;6124799;23;20009;-83
2022/06/27 04:04:21;;;;;;;7.85;1.08;;;;;;;16.57;100.00;100253.31;6124935;23;20005;-84
2022/06/27 04:06:46;;;;;;;7.95;1.42;;;;;;;16.77;100.00;100245.25;6124832;23;20013;-84
2022/06/27 04:09:11;;;;;;;6.65;1.05;;;;;;;16.89;100.00;100241.44;6125004;23;20032;-84
2022/06/27 04:11:37;;;;;;;9.07;1.17;;;;;;;16.92;100.00;100248.25;6125048;23;20081;-84
2022/06/27 04:14:02;;;;;;;4.88;0.98;;;;;;;16.90;100.00;100237.81;6124955;23;19998;-84
2022/06/27 04:16:27;;;;;;;5.43;0.85;;;;;;;16.92;100.00;100237.66;6124695;23;20040;-84
2022/06/27 04:18:54;;;;;;;2.95;0.90;;;;;;;16.77;100.00;100240.78;6125202;23;19998;-84
2022/06/27 04:21:19;;;;;;;7.40;1.20;;;;;;;16.80;100.00;100258.22;6124891;23;20009;-84
2022/06/27 04:23:45;;;;;;;9.25;1.13;;;;;;;16.60;100.00;100263.59;6123260;23;20022;-84
2022/06/27 04:26:10;;;;;;;9.45;1.95;;;;;;;16.77;100.00;100250.56;6124723;23;20331;-83
2022/06/27 04:28:36;;;;;;;5.68;1.02;;;;;;;16.66;100.00;100252.41;6125241;23;20429;-84
2022/06/27 04:31:01;;;;;;;5.35;0.70;;;;;;;16.84;100.00;100249.00;6124557;23;20006;-84
2022/06/27 04:33:27;;;;;;;2.35;0.47;;;;;;;16.94;100.00;100249.81;6124523;23;20413;-84
2022/06/27 04:35:52;;;;;;;5.03;0.70;;;;;;;16.87;100.00;100253.19;6147936;23;20072;-84
2022/06/27 04:38:19;;;;;;;5.68;0.80;;;;;;;16.87;100.00;100256.69;6124860;23;20006;-84
2022/06/27 04:40:45;;;;;;;5.93;0.70;;;;;;;16.91;100.00;100260.69;6124951;23;20002;-84
2022/06/27 04:43:10;;;;;;;6.18;0.50;;;;;;;17.38;100.00;100262.34;6124832;23;20381;-83
2022/06/27 04:45:36;;;;;;;3.03;0.73;;;;;;;17.34;100.00;100261.81;6124948;23;20006;-84
2022/06/27 04:48:01;;;;;;;4.47;0.90;;;;;;;17.41;100.00;100252.22;6124514;23;20049;-83
2022/06/27 04:50:27;;;;;;;6.28;1.60;;;;;;;17.33;100.00;100248.69;6124618;23;20006;-84
2022/06/27 04:52:54;;;;;;;7.95;1.67;;;;;;;17.21;100.00;100250.72;6124538;23;20344;-84
2022/06/27 04:55:20;;;;;;;4.13;0.98;;;;;;;17.13;100.00;100254.13;6124758;23;20413;-84
2022/06/27 04:57:46;;;;;;;5.40;0.95;;;;;;;17.27;100.00;100258.06;6124700;23;20085;-84
2022/06/27 05:00:15;;;;;;;7.72;0.65;;;;;;;17.26;100.00;100253.78;6147837;23;20328;-83
2022/06/27 05:02:40;;;;;;;6.90;0.60;;;;;;;17.12;100.00;100256.94;6122916;23;20002;-84
2022/06/27 05:05:07;;;;;;;3.38;0.80;;;;;;;17.16;100.00;100253.84;6124614;23;20374;-84
2022/06/27 05:07:32;;;;;;;5.80;0.60;;;;;;;17.07;100.00;100261.88;6124582;23;20013;-84
2022/06/27 05:09:58;;;;;;;4.72;0.60;;;;;;;17.20;100.00;100263.16;6124715;23;20500;-84
2022/06/27 05:12:25;;;;;;;3.05;0.40;;;;;;;16.96;100.00;100265.53;6124824;23;20006;-84
2022/06/27 05:14:51;;;;;;;4.15;0.60;;;;;;;16.95;100.00;100272.69;6124702;23;20013;-84
2022/06/27 05:17:16;;;;;;;4.68;0.52;;;;;;;17.12;100.00;100272.84;6124368;23;20037;-84
2022/06/27 05:19:42;;;;;;;3.53;0.55;;;;;;;16.90;100.00;100269.63;6125032;23;20014;-84
2022/06/27 05:22:08;;;;;;;5.45;0.60;;;;;;;17.11;100.00;100271.19;6124443;23;20016;-84
2022/06/27 05:24:34;;;;;;;9.80;1.00;;;;;;;17.14;100.00;100265.56;6124433;23;20045;-84
2022/06/27 05:26:59;;;;;;;4.97;0.80;;;;;;;17.17;100.00;100266.09;6124695;23;20013;-84
2022/06/27 05:29:24;;;;;;;7.03;0.85;;;;;;;17.13;100.00;100271.88;6124503;23;20002;-84
2022/06/27 05:31:50;;;;;;;5.97;0.63;;;;;;;16.93;100.00;100276.47;6124545;23;20013;-85
2022/06/27 05:34:15;;;;;;;6.10;0.75;;;;;;;16.67;100.00;100279.78;6124391;23;20439;-84
2022/06/27 05:36:41;;;;;;;1.98;0.60;;;;;;;16.82;100.00;100277.50;6125705;23;20001;-84
2022/06/27 05:39:07;;;;;;;3.17;0.50;;;;;;;16.93;100.00;100285.25;6126481;23;20367;-84
2022/06/27 05:41:32;;;;;;;4.28;0.65;;;;;;;16.84;100.00;100281.69;6126369;23;20425;-84
2022/06/27 05:43:59;;;;;;;9.25;0.80;;;;;;;16.99;100.00;100279.34;6126755;23;20014;-84
2022/06/27 05:46:25;;;;;;;2.20;0.50;;;;;;;16.84;100.00;100280.81;6126160;23;20002;-84
2022/06/27 05:48:51;;;;;;;4.32;0.73;;;;;;;16.98;100.00;100285.66;6126274;23;20114;-85
2022/06/27 05:51:19;;;;;;;3.15;0.85;;;;;;;17.09;100.00;100286.44;6126623;23;20077;-84
2022/06/27 05:53:45;;;;;;;2.10;0.40;;;;;;;17.32;100.00;100292.97;6124764;23;20006;-84
2022/06/27 05:56:10;;;;;;;4.70;0.82;;;;;;;17.41;100.00;100300.00;6126519;23;20442;-85
2022/06/27 05:58:37;;;;;;;1.33;0.35;;;;;;;17.58;100.00;100294.88;6123965;23;20010;-84
2022/06/27 06:01:02;;;;;;;3.35;0.70;;;;;;;17.37;100.00;100289.84;6124570;23;20433;-84
2022/06/27 06:03:28;;;;;;;2.20;0.57;;;;;;;17.48;100.00;100294.13;6120905;23;20016;-85
2022/06/27 06:05:54;;;;;;;2.15;0.50;;;;;;;17.61;100.00;100295.41;6118311;23;20332;-84
2022/06/27 06:08:21;;;;;;;4.47;0.60;;;;;;;17.81;100.00;100298.72;6120044;23;20314;-85
2022/06/27 06:10:47;;;;;;;2.78;0.60;;;;;;;17.77;100.00;100297.34;6120093;23;20129;-86
2022/06/27 06:13:13;;;;;;;2.55;0.60;;;;;;;17.87;100.00;100304.41;6118597;23;20065;-84
2022/06/27 06:15:40;;;;;;;2.42;0.50;;;;;;;18.03;100.00;100293.94;6120494;23;20010;-85
2022/06/27 06:18:06;;;;;;;3.17;0.65;;;;;;;18.17;100.00;100301.31;6119822;23;20032;-84
2022/06/27 06:20:32;;;;;;;3.28;0.85;;;;;;;17.99;100.00;100297.84;6119888;23;20496;-84
2022/06/27 06:22:59;;;;;;;7.82;0.70;;;;;;;17.81;100.00;100301.38;6119546;23;20006;-84
2022/06/27 06:25:25;;;;;;;3.35;0.73;;;;;;;18.04;100.00;100308.88;6119759;23;20010;-84
2022/06/27 06:27:51;;;;;;;5.65;0.65;;;;;;;18.09;100.00;100306.59;6141493;23;20013;-84
2022/06/27 06:30:19;;;;;;;3.35;0.75;;;;;;;18.19;100.00;100309.97;6119613;23;20014;-84
2022/06/27 06:32:46;;;;;;;3.13;0.70;;;;;;;18.48;100.00;100311.47;6120249;23;20010;-84
2022/06/27 06:35:11;;;;;;;1.88;0.50;;;;;;;19.01;100.00;100315.72;6119748;23;20429;-85
2022/06/27 06:37:40;;;;;;;2.83;0.77;;;;;;;18.73;100.00;100316.91;6119772;23;20121;-85
2022/06/27 06:40:06;;;;;;;2.72;0.50;;;;;;;19.02;100.00;100321.88;6119795;23;20006;-85
2022/06/27 06:42:32;;;;;;;3.22;1.05;;;;;;;19.23;100.00;100324.09;6118434;23;20010;-84
2022/06/27 06:44:57;;;;;;;6.43;1.00;;;;;;;19.12;99.41;100327.06;6119671;23;20433;-84
2022/06/27 06:47:23;;;;;;;6.55;0.95;;;;;;;19.04;100.00;100338.53;6120417;23;20064;-84
2022/06/27 06:49:48;;;;;;;7.18;1.00;;;;;;;18.67;100.00;100323.69;6120846;23;20005;-84
2022/06/27 06:52:14;;;;;;;3.15;1.17;;;;;;;18.69;100.00;100335.00;6120700;23;20016;-84
2022/06/27 06:54:43;;;;;;;4.90;1.15;;;;;;;18.75;100.00;100329.06;6122050;23;20009;-84
2022/06/27 06:57:09;;;;;;;4.28;0.80;;;;;;;18.31;100.00;100339.78;6125194;23;20081;-85
2022/06/27 06:59:36;;;;;;;2.47;0.43;;;;;;;18.60;100.00;100350.09;6125494;23;20009;-84
2022/06/27 07:02:01;;;;;;;2.25;0.32;;;;;;;19.05;98.81;100345.50;6125531;23;20084;-84
2022/06/27 07:04:26;;;;;;;3.17;0.60;;;;;;;18.66;100.00;100348.66;6125478;23;20085;-84
2022/06/27 07:06:53;;;;;;;3.13;0.60;;;;;;;18.93;99.07;100354.78;6125345;23;20010;-84
2022/06/27 07:09:18;;;;;;;5.18;0.90;;;;;;;18.57;100.00;100350.41;6125517;23;20388;-84
2022/06/27 07:11:45;;;;;;;4.82;0.40;;;;;;;18.31;100.00;100349.59;6125103;23;20073;-84
2022/06/27 07:14:12;;;;;;;4.15;0.80;;;;;;;18.86;99.53;100351.94;6124234;23;20009;-84
2022/06/27 07:16:38;;;;;;;3.30;1.17;;;;;;;18.77;97.52;100351.00;6124582;23;20030;-84
2022/06/27 07:19:06;;;;;;;3.05;0.47;;;;;;;18.27;100.00;100359.69;6121814;23;20002;-84
2022/06/27 07:21:34;;;;;;;4.68;0.77;;;;;;;18.39;100.00;100362.94;6124185;23;20425;-85
2022/06/27 07:24:01;;;;;;;1.80;0.47;;;;;;;18.34;100.00;100366.03;6125199;23;20009;-84
2022/06/27 07:26:28;;;;;;;4.15;0.95;;;;;;;18.28;99.32;100365.84;6124685;23;20005;-84
2022/06/27 07:28:54;;;;;;;3.92;0.55;;;;;;;18.64;99.38;100371.88;6124895;23;20489;-84
2022/06/27 07:31:20;;;;;;;4.55;0.73;;;;;;;18.59;97.23;100372.34;6124746;23;20037;-85
2022/06/27 07:33:48;;;;;;;3.33;0.57;;;;;;;18.51;99.22;100374.16;6124517;23;20065;-84
2022/06/27 07:36:15;;;;;;;2.67;0.50;;;;;;;18.62;99.76;100374.72;6122934;23;20333;-85
2022/06/27 07:38:42;;;;;;;2.22;0.30;;;;;;;18.65;99.29;100383.38;6124066;23;20001;-84
2022/06/27 07:41:09;;;;;;;4.30;0.70;;;;;;;18.55;99.46;100384.28;6124472;23;19998;-85
2022/06/27 07:43:35;;;;;;;3.47;0.93;;;;;;;18.94;96.30;100391.03;6124443;23;20443;-85
2022/06/27 07:46:01;;;;;;;3.92;0.63;;;;;;;18.88;96.04;100389.84;6124581;23;20002;-84
2022/06/27 07:48:27;;;;;;;3.63;0.70;;;;;;;18.72;96.39;100385.25;6124552;23;20006;-83
2022/06/27 07:50:54;;;;;;;2.55;0.50;;;;;;;18.43;96.81;100385.56;6124624;23;20006;-83
2022/06/27 07:53:20;;;;;;;1.92;0.73;;;;;;;18.71;96.69;100385.38;6124247;23;19998;-83
2022/06/27 07:56:00;;;;;;;2.72;0.57;;;;;;;18.74;95.72;100390.38;6124980;23;20006;-83
2022/06/27 07:58:35;;;;;;;5.93;0.60;;;;;;;18.88;94.96;100389.00;6124863;23;20318;-83
2022/06/27 08:01:06;;;;;;;3.50;0.60;;;;;;;19.12;91.50;100389.13;6124367;23;20006;-87
2022/06/27 08:03:41;;;;;;;3.33;0.70;;;;;;;18.81;93.99;100399.44;6124671;23;20081;-85
2022/06/27 08:06:18;;;;;;;2.70;0.40;;;;;;;18.70;94.15;100399.66;6124420;23;20333;-84
2022/06/27 08:08:55;;;;;;;4.18;0.40;;;;;;;19.13;92.31;100392.59;6124196;23;20013;-84
2022/06/27 08:11:24;;;;;;;3.80;0.60;;;;;;;19.19;91.78;100399.94;6124701;23;20002;-85
2022/06/27 08:13:52;;;;;;;3.30;0.95;;;;;;;19.17;90.45;100400.13;6124864;23;20084;-84
2022/06/27 08:16:20;;;;;;;2.60;0.52;;;;;;;19.11;91.04;100410.56;6123696;23;20002;-84
2022/06/27 08:18:47;;;;;;;4.40;0.50;;;;;;;19.06;90.39;100412.88;6122574;23;20002;-85
2022/06/27 08:21:18;;;;;;;3.28;0.80;;;;;;;18.96;89.40;100419.16;6122039;23;20049;-84
2022/06/27 08:23:46;;;;;;;4.45;0.77;;;;;;;18.95;90.30;100420.13;6123220;23;20010;-84
2022/06/27 08:26:15;;;;;;;3.55;0.63;;;;;;;19.09;88.47;100423.19;6121928;23;20002;-84
2022/06/27 08:28:42;;;;;;;0.90;0.30;;;;;;;19.19;89.06;100419.44;6122356;23;20057;-84
2022/06/27 08:31:10;;;;;;;3.67;0.63;;;;;;;19.28;88.88;100422.94;6123768;23;20081;-85
2022/06/27 08:33:37;;;;;;;7.00;0.80;;;;;;;18.76;94.62;100438.94;6123100;23;20009;-85
2022/06/27 08:36:04;;;;;;;5.70;1.50;;;;;;;18.67;99.95;100445.22;6123808;23;20002;-85
2022/06/27 08:38:32;;;;;;;8.40;0.82;;;;;;;18.58;97.25;100450.47;6124166;23;20006;-85
2022/06/27 08:40:57;;;;;;;2.17;0.57;;;;;;;18.70;96.42;100455.50;6124087;23;20076;-86
2022/06/27 08:43:23;;;;;;;7.07;1.00;;;;;;;18.54;96.76;100465.06;6123836;23;20037;-83
2022/06/27 08:45:51;;;;;;;3.38;0.65;;;;;;;18.57;96.61;100456.75;6123396;23;20001;-83
2022/06/27 08:48:17;;;;;;;1.60;0.40;;;;;;;18.38;96.07;100457.81;6123028;23;20006;-83
2022/06/27 08:50:43;;;;;;;1.90;0.63;;;;;;;18.65;95.66;100455.16;6123775;23;20293;-83
2022/06/27 08:53:11;;;;;;;2.80;0.63;;;;;;;18.98;92.47;100462.41;6124261;23;20118;-85
2022/06/27 08:55:36;;;;;;;4.15;0.57;;;;;;;18.66;90.29;100464.81;6123514;23;20417;-85
2022/06/27 08:58:11;;;;;;;5.10;0.57;;;;;;;19.09;90.46;100457.78;6123569;23;20002;-85
2022/06/27 09:00:40;;;;;;;4.25;0.60;;;;;;;19.16;92.69;100459.66;6122193;23;20028;-85
2022/06/27 09:03:10;;;;;;;3.28;0.82;;;;;;;19.36;90.56;100462.91;6123666;23;20453;-85
2022/06/27 09:05:36;;;;;;;2.63;0.60;;;;;;;19.79;90.06;100463.75;6123555;23;20029;-85
2022/06/27 09:08:07;;;;;;;4.28;0.80;;;;;;;20.14;86.29;100461.81;6121790;23;20332;-85
2022/06/27 09:10:39;;;;;;;3.83;0.70;;;;;;;20.44;80.97;100462.16;6122364;23;20373;-84
2022/06/27 09:13:16;;;;;;;1.73;0.65;;;;;;;20.77;81.41;100467.47;6124494;23;20013;-85
2022/06/27 09:15:52;;;;;;;1.42;0.50;;;;;;;21.00;78.72;100468.44;6123944;23;20001;-85
2022/06/27 09:18:21;;;;;;;3.10;0.40;;;;;;;21.63;73.84;100468.56;6123772;23;20037;-85
2022/06/27 09:20:52;;;;;;;4.47;0.82;;;;;;;22.71;67.50;100466.78;6124205;23;20048;-85
2022/06/27 09:23:49;;;;;;;2.00;0.60;;;;;;;24.01;63.18;100468.94;6124193;23;20472;-85
2022/06/27 09:26:15;;;;;;;4.13;0.70;;;;;;;26.17;54.62;100474.41;6123883;23;20421;-86
2022/06/27 09:28:56;;;;;;;4.85;1.50;;;;;;;27.69;49.77;100467.09;6124235;23;20056;-84
2022/06/27 09:31:25;;;;;;;2.97;0.60;;;;;;;27.31;48.26;100485.94;6123855;23;20033;-85
2022/06/27 09:34:09;;;;;;;2.03;0.40;;;;;;;27.86;46.87;100485.47;6123605;23;20012;-85
2022/06/27 09:36:42;;;;;;;7.32;0.68;;;;;;;26.90;47.80;100484.38;6124054;23;20007;-85
2022/06/27 09:39:24;;;;;;;5.80;0.60;;;;;;;25.98;49.39;100486.78;6124558;23;20094;-85
2022/06/27 09:41:58;;;;;;;4.60;0.82;;;;;;;25.81;51.44;100490.84;6124496;23;20009;-84
2022/06/27 09:44:35;;;;;;;3.10;0.50;;;;;;;25.51;51.69;100492.00;6124228;23;20013;-84
2022/06/27 09:47:11;;;;;;;2.42;0.60;;;;;;;24.86;55.54;100494.06;6124518;23;20310;-84
2022/06/27 09:49:40;;;;;;;5.57;0.90;;;;;;;24.25;54.46;100494.56;6124095;23;20010;-84
2022/06/27 09:52:12;;;;;;;3.88;1.00;;;;;;;24.17;56.02;100496.53;6124621;23;20028;-84
2022/06/27 09:54:40;;;;;;;3.42;0.82;;;;;;;24.16;56.44;100493.03;6125191;23;20096;-85
2022/06/27 09:57:07;;;;;;;3.13;0.50;;;;;;;24.42;54.38;100500.50;6123750;23;20117;-85
2022/06/27 09:59:33;;;;;;;8.95;1.20;;;;;;;23.57;56.33;100502.03;6124731;23;20389;-84
2022/06/27 10:02:00;;;;;;;6.20;1.38;;;;;;;24.00;54.52;100496.78;6125639;23;20002;-84
2022/06/27 10:04:26;;;;;;;12.23;1.33;;;;;;;23.74;53.40;100505.34;6124456;23;20467;-84
2022/06/27 10:06:54;;;;;;;3.90;0.70;;;;;;;23.16;55.42;100510.53;6124461;23;20010;-84
2022/06/27 10:09:21;;;;;;;3.33;1.00;;;;;;;23.58;53.53;100511.75;6125676;23;20005;-84
2022/06/27 10:11:48;;;;;;;4.80;1.08;;;;;;;23.74;55.08;100514.19;6123362;23;20032;-83
2022/06/27 10:14:22;;;;;;;6.78;1.17;;;;;;;24.42;52.57;100513.91;6121102;23;20010;-83
2022/06/27 10:16:58;;;;;;;3.08;0.90;;;;;;;24.14;48.48;100519.22;6123093;23;19998;-83
2022/06/27 10:19:25;;;;;;;4.32;1.08;;;;;;;24.47;49.14;100524.91;6125203;23;20006;-83
2022/06/27 10:21:51;;;;;;;3.33;0.80;;;;;;;24.75;46.90;100524.16;6125001;23;19998;-83
2022/06/27 10:24:26;;;;;;;4.85;0.90;;;;;;;24.28;47.13;100520.19;6123852;23;20466;-83
2022/06/27 10:26:57;;;;;;;5.80;1.00;;;;;;;25.26;46.27;100515.84;6122793;23;20185;-83
2022/06/27 10:29:28;;;;;;;4.22;0.73;;;;;;;24.44;47.21;100516.41;6120674;23;20077;-83
2022/06/27 10:31:54;;;;;;;;;;;;;;;24.40;49.18;100515.97;6123487;23;20013;-84
2022/06/27 10:34:37;;;;;;;4.10;0.82;;;;;;;24.17;45.89;100509.94;6121754;23;19913;-84
2022/06/27 10:37:28;;;;;;;4.57;0.80;;;;;;;26.61;43.82;100523.34;6122766;23;20012;-82
2022/06/27 10:40:17;;;;;;;4.30;0.90;;;;;;;26.24;42.14;100517.47;6124180;23;20006;-83
2022/06/27 10:42:56;;;;;;;4.00;0.63;;;;;;;27.92;40.20;100522.41;6108073;23;20014;-84
2022/06/27 10:45:21;;;;;;;4.32;0.70;;;;;;;28.83;39.00;100510.38;6125165;23;20073;-83
2022/06/27 10:47:57;;;;;;;5.63;1.05;;;;;;;30.52;36.09;100508.91;6123154;23;20032;-84
2022/06/27 10:50:26;;;;;;;2.72;0.60;;;;;;;31.58;34.62;100503.44;6144887;23;20077;-83
2022/06/27 10:53:21;;;;;;;3.72;0.63;;;;;;;31.01;32.64;100503.28;6122513;23;20052;-83
2022/06/27 10:55:47;;;;;;;2.58;0.45;;;;;;;29.86;33.42;100510.72;6122354;23;20056;-84
2022/06/27 10:58:29;;;;;;;2.33;0.70;;;;;;;28.91;34.75;100511.13;6120731;23;20434;-83
2022/06/27 11:01:15;;;;;;;3.28;0.82;;;;;;;26.35;38.05;100533.00;6122565;23;20016;-83
2022/06/27 11:03:41;;;;;;;2.83;0.68;;;;;;;25.84;39.35;100526.22;6124740;23;20013;-85
2022/06/27 11:06:08;;;;;;;3.70;1.20;;;;;;;25.48;41.46;100534.56;6129931;23;20034;-84
2022/06/27 11:08:36;;;;;;;7.88;1.08;;;;;;;24.99;43.16;100525.56;6127364;23;20037;-85
2022/06/27 11:11:03;;;;;;;6.93;1.27;;;;;;;25.88;40.18;100529.34;6123436;23;20413;-84
2022/06/27 11:13:46;;;;;;;5.10;1.02;;;;;;;26.54;39.83;100528.69;6122549;23;20014;-84
2022/06/27 11:16:23;;;;;;;6.47;1.20;;;;;;;27.69;38.00;100520.25;6120300;23;20016;-85
2022/06/27 11:18:51;;;;;;;7.93;0.88;;;;;;;26.69;39.78;100532.03;6124388;23;20001;-84
2022/06/27 11:21:36;;;;;;;3.67;0.68;;;;;;;27.42;38.68;100531.13;6119836;23;20006;-87
2022/06/27 11:24:11;;;;;;;4.03;0.77;;;;;;;27.99;39.69;100519.72;6120738;23;20002;-84
2022/06/27 11:26:44;;;;;;;5.72;1.20;;;;;;;26.93;39.98;100528.91;6120784;23;20421;-85
2022/06/27 11:32:08;;;;;;;5.35;1.20;;;;;;;27.49;38.04;100536.50;6125175;23;20021;-85